This is the latest recevied weather packets stored in our database for station/object KJ4EBE. If no packets are shown the sender has not sent any weather packets the latest 10 day(s).
| Time | Temp. | Humidity | Pressure | Rain* | Wind** | Luminosity | Snow |
|---|---|---|---|---|---|---|---|
| 1777046206 | 28.33° C | 75% | 1007.2 hPa | 0 mm | - | 701 W/m² | - |
| 1777045902 | 27.22° C | 78% | 1007.4 hPa | 0 mm | - | 658 W/m² | - |
| 1777045598 | 26.67° C | 79% | 1007.4 hPa | 0 mm | - | 634 W/m² | - |
| 1777045294 | 27.78° C | 77% | 1007.3 hPa | 0 mm | - | 378 W/m² | - |
| 1777044991 | 27.22° C | 78% | 1007.2 hPa | 0 mm | - | 702 W/m² | - |
| 1777044686 | 27.22° C | 78% | 1007.4 hPa | 0 mm | - | 635 W/m² | - |
| 1777044383 | 26.67° C | 79% | 1007.1 hPa | 0 mm | - | 659 W/m² | - |
| 1777044083 | 26.67° C | 80% | 1007.3 hPa | 0 mm | - | 598 W/m² | - |
| 1777043780 | 26.11° C | 82% | 1007.4 hPa | 0 mm | - | 467 W/m² | - |
| 1777043476 | 25.56° C | 82% | 1007.3 hPa | 0 mm | - | 471 W/m² | - |
| 1777043172 | 25° C | 84% | 1007.3 hPa | 0 mm | - | 578 W/m² | - |
| 1777042868 | 25° C | 84% | 1007.3 hPa | 0 mm | - | 185 W/m² | - |
| 1777042563 | 25° C | 84% | 1007.2 hPa | 0 mm | - | 344 W/m² | - |
| 1777042259 | 25.56° C | 83% | 1007 hPa | 0 mm | - | 211 W/m² | - |
| 1777041955 | 25° C | 85% | 1007.1 hPa | 0 mm | - | 579 W/m² | - |
| 1777041652 | 25° C | 84% | 1007.1 hPa | 0 mm | - | 197 W/m² | - |
| 1777041348 | 24.44° C | 87% | 1007 hPa | 0 mm | - | 195 W/m² | - |
| 1777041045 | 24.44° C | 87% | 1007.1 hPa | 0 mm | - | 488 W/m² | - |
| 1777040741 | 23.89° C | 87% | 1007.1 hPa | 0 mm | - | 215 W/m² | - |
| 1777040440 | 23.89° C | 89% | 1007.3 hPa | 0 mm | - | 163 W/m² | - |
| 1777040136 | 23.89° C | 88% | 1007.2 hPa | 0 mm | - | 182 W/m² | - |
| 1777039832 | 24.44° C | 88% | 1007.1 hPa | 0 mm | - | 454 W/m² | - |
| 1777039532 | 23.89° C | 89% | 1007.1 hPa | 0 mm | - | 151 W/m² | - |
| 1777039227 | 24.44° C | 88% | 1007.3 hPa | 0 mm | - | 186 W/m² | - |
| 1777038926 | 23.89° C | 89% | 1007 hPa | 0 mm | - | 301 W/m² | - |
* Rain latest hour (hover to see other rain measurements)
** Current wind speed in m/s (hover to see current wind gust speed)